createdAt,value
2019-01-08T00:02:04.887Z,9.60
2019-01-08T00:04:34.637Z,9.60
2019-01-08T00:07:04.004Z,9.60
2019-01-08T00:09:33.377Z,9.60
2019-01-08T00:12:02.763Z,9.60
2019-01-08T00:14:32.127Z,9.60
2019-01-08T00:17:08.474Z,9.60
2019-01-08T00:19:38.485Z,9.60
2019-01-08T00:22:07.921Z,9.60
2019-01-08T00:24:38.135Z,9.70
2019-01-08T00:27:07.516Z,9.70
2019-01-08T00:29:36.885Z,9.70
2019-01-08T00:32:06.249Z,9.70
2019-01-08T00:34:35.639Z,9.70
2019-01-08T00:37:05.006Z,9.70
2019-01-08T00:39:34.375Z,9.70
2019-01-08T00:42:04.182Z,9.70
2019-01-08T00:44:33.550Z,9.70
2019-01-08T00:47:03.742Z,9.70
2019-01-08T00:49:33.125Z,9.80
2019-01-08T00:52:02.498Z,9.80
2019-01-08T00:54:31.883Z,9.70
2019-01-08T00:57:01.253Z,9.70
2019-01-08T00:59:30.627Z,9.80
2019-01-08T01:02:00.058Z,9.80
2019-01-08T01:04:29.834Z,9.80
2019-01-08T01:06:59.207Z,9.80
2019-01-08T01:09:28.578Z,9.80
2019-01-08T01:11:57.979Z,9.80
2019-01-08T01:14:27.349Z,9.80
2019-01-08T01:16:56.728Z,9.80
2019-01-08T01:19:26.112Z,9.80
2019-01-08T01:21:55.476Z,9.80
2019-01-08T01:24:24.852Z,9.80
2019-01-08T01:26:56.023Z,9.80
2019-01-08T01:29:25.396Z,9.80
2019-01-08T01:31:54.777Z,9.80
2019-01-08T01:34:24.553Z,9.80
2019-01-08T01:36:53.977Z,9.80
2019-01-08T01:39:23.348Z,9.80
2019-01-08T01:41:53.942Z,9.80
2019-01-08T01:44:23.313Z,9.80
2019-01-08T01:46:52.683Z,9.80
2019-01-08T01:49:22.356Z,9.80
2019-01-08T01:51:52.033Z,9.80
2019-01-08T01:54:21.409Z,9.70
2019-01-08T01:56:50.802Z,9.80
2019-01-08T01:59:20.172Z,9.70
2019-01-08T02:01:49.554Z,9.70
2019-01-08T02:04:18.948Z,9.80
2019-01-08T02:06:48.331Z,9.80
2019-01-08T02:09:17.713Z,9.80
2019-01-08T02:11:47.665Z,9.80
2019-01-08T02:14:17.042Z,9.80
2019-01-08T02:16:46.416Z,9.80
2019-01-08T02:19:15.815Z,9.80
2019-01-08T02:21:45.193Z,9.90
2019-01-08T02:24:14.575Z,9.90
2019-01-08T02:26:43.987Z,9.90
2019-01-08T02:29:16.687Z,9.90
2019-01-08T02:31:45.744Z,9.90
2019-01-08T02:34:15.516Z,9.90
2019-01-08T02:36:44.886Z,9.90
2019-01-08T02:39:14.263Z,9.90
2019-01-08T02:41:43.672Z,9.90
2019-01-08T02:44:13.228Z,9.90
2019-01-08T02:46:43.040Z,9.90
2019-01-08T02:49:12.559Z,9.90
2019-01-08T02:51:42.240Z,10.00
2019-01-08T02:54:11.631Z,10.00
2019-01-08T02:56:41.271Z,10.00
2019-01-08T02:59:10.636Z,10.00
2019-01-08T03:01:40.016Z,10.00
2019-01-08T03:04:09.428Z,10.00
2019-01-08T03:06:38.803Z,10.00
2019-01-08T03:09:08.174Z,10.10
2019-01-08T03:11:37.654Z,10.10
2019-01-08T03:14:07.040Z,10.10
2019-01-08T03:16:36.418Z,10.10
2019-01-08T03:19:06.396Z,10.10
2019-01-08T03:21:35.782Z,10.20
2019-01-08T03:24:05.184Z,10.20
2019-01-08T03:26:34.566Z,10.20
2019-01-08T03:29:03.942Z,10.20
2019-01-08T03:31:33.838Z,10.20
2019-01-08T03:34:03.500Z,10.20
2019-01-08T03:36:32.868Z,10.20
2019-01-08T03:39:02.247Z,10.20
2019-01-08T03:41:31.957Z,10.30
2019-01-08T03:44:01.328Z,10.30
2019-01-08T03:46:30.724Z,10.30
2019-01-08T03:49:00.115Z,10.30
2019-01-08T03:51:29.507Z,10.30
2019-01-08T03:53:58.881Z,10.30
2019-01-08T03:56:28.278Z,10.30
2019-01-08T03:58:57.646Z,10.30
2019-01-08T04:01:27.034Z,10.40
2019-01-08T04:03:56.888Z,10.40
2019-01-08T04:06:26.554Z,10.40
2019-01-08T04:08:55.937Z,10.40
2019-01-08T04:11:25.325Z,10.30
2019-01-08T04:13:54.701Z,10.30
2019-01-08T04:16:24.079Z,10.30
2019-01-08T04:18:53.470Z,10.30
2019-01-08T04:21:22.847Z,10.20
2019-01-08T04:23:52.219Z,10.20
2019-01-08T04:26:21.673Z,10.20
2019-01-08T04:28:51.056Z,10.10
2019-01-08T04:31:20.437Z,10.20
2019-01-08T04:33:49.822Z,10.10
2019-01-08T04:36:19.191Z,10.10
2019-01-08T04:38:48.562Z,10.10
2019-01-08T04:41:17.951Z,10.10
2019-01-08T04:43:47.346Z,10.10
2019-01-08T04:46:16.728Z,10.00
2019-01-08T04:48:46.352Z,10.10
2019-01-08T04:51:15.725Z,10.00
2019-01-08T04:53:45.111Z,10.00
2019-01-08T04:56:14.505Z,10.00
2019-01-08T04:58:43.876Z,10.00
2019-01-08T05:01:13.266Z,9.90
2019-01-08T05:03:42.658Z,9.90
2019-01-08T05:06:12.045Z,9.90
2019-01-08T05:08:41.417Z,9.80
2019-01-08T05:11:11.355Z,9.80
2019-01-08T05:13:40.736Z,9.80
2019-01-08T05:16:10.109Z,9.70
2019-01-08T05:18:39.503Z,9.70
2019-01-08T05:21:08.877Z,9.70
2019-01-08T05:23:38.510Z,9.70
2019-01-08T05:26:07.886Z,9.70
2019-01-08T05:28:37.259Z,9.70
2019-01-08T05:31:06.625Z,9.60
2019-01-08T05:33:36.510Z,9.60
2019-01-08T05:36:06.420Z,9.60
2019-01-08T05:38:35.804Z,9.60
2019-01-08T05:41:05.184Z,9.60
2019-01-08T05:43:34.560Z,9.60
2019-01-08T05:46:03.924Z,9.70
2019-01-08T05:48:33.305Z,9.70
2019-01-08T05:51:02.670Z,9.70
2019-01-08T05:53:32.039Z,9.70
2019-01-08T05:56:01.751Z,9.70
2019-01-08T05:58:31.368Z,9.80
2019-01-08T06:01:00.744Z,9.80
2019-01-08T06:03:30.117Z,9.80
2019-01-08T06:05:59.486Z,9.80
2019-01-08T06:08:28.847Z,9.90
2019-01-08T06:10:58.233Z,9.90
2019-01-08T06:13:27.596Z,9.90
2019-01-08T06:15:56.970Z,10.00
2019-01-08T06:18:26.693Z,10.00
2019-01-08T06:20:56.058Z,10.00
2019-01-08T06:23:25.759Z,10.00
2019-01-08T06:25:55.140Z,10.10
2019-01-08T06:28:24.510Z,10.10
2019-01-08T06:30:53.887Z,10.10
2019-01-08T06:33:23.269Z,10.10
2019-01-08T06:35:52.720Z,10.20
2019-01-08T06:38:22.299Z,10.20
2019-01-08T06:40:57.479Z,10.20
2019-01-08T06:43:23.177Z,10.20
2019-01-08T06:45:52.513Z,10.20
2019-01-08T06:48:21.909Z,10.10
2019-01-08T06:50:55.982Z,10.10
2019-01-08T06:53:22.389Z,10.20
2019-01-08T06:55:51.769Z,10.10
2019-01-08T06:58:21.166Z,10.10
2019-01-08T07:00:50.537Z,10.10
2019-01-08T07:03:20.248Z,10.10
2019-01-08T07:05:51.245Z,10.10
2019-01-08T07:08:20.620Z,10.10
2019-01-08T07:10:50.008Z,10.10
2019-01-08T07:13:19.672Z,10.10
2019-01-08T07:15:49.366Z,10.10
2019-01-08T07:18:18.750Z,10.10
2019-01-08T07:20:48.185Z,10.10
2019-01-08T07:23:17.577Z,10.10
2019-01-08T07:25:47.228Z,10.10
2019-01-08T07:28:16.602Z,10.10
2019-01-08T07:30:45.980Z,10.10
2019-01-08T07:33:15.366Z,10.10
2019-01-08T07:35:44.743Z,10.10
2019-01-08T07:38:14.131Z,10.10
2019-01-08T07:40:43.919Z,10.20
2019-01-08T07:43:13.295Z,10.20
2019-01-08T07:45:42.737Z,10.20
2019-01-08T07:48:12.419Z,10.20
2019-01-08T07:50:41.828Z,10.20
2019-01-08T07:53:11.197Z,10.20
2019-01-08T07:55:40.591Z,10.20
2019-01-08T07:58:09.957Z,10.20
2019-01-08T08:00:39.330Z,10.20
2019-01-08T08:03:08.707Z,10.20
2019-01-08T08:05:38.080Z,10.20
2019-01-08T08:08:07.518Z,10.20
2019-01-08T08:10:37.398Z,10.20
2019-01-08T08:13:06.772Z,10.20
2019-01-08T08:15:36.143Z,10.20
2019-01-08T08:18:05.524Z,10.20
2019-01-08T08:20:34.958Z,10.20
2019-01-08T08:23:04.326Z,10.20
2019-01-08T08:25:33.982Z,10.20
2019-01-08T08:28:03.353Z,10.20
2019-01-08T08:30:32.730Z,10.20
2019-01-08T08:33:02.588Z,10.20
2019-01-08T08:35:31.960Z,10.20
2019-01-08T08:38:01.340Z,10.20
2019-01-08T08:40:30.731Z,10.10
2019-01-08T08:43:00.655Z,10.10
2019-01-08T08:45:30.033Z,10.00
2019-01-08T08:47:59.423Z,10.00
2019-01-08T08:50:28.785Z,10.00
2019-01-08T08:52:58.149Z,10.00
2019-01-08T08:55:27.586Z,10.00
2019-01-08T08:57:56.948Z,9.90
2019-01-08T09:00:26.308Z,9.90
2019-01-08T09:02:55.692Z,9.90
2019-01-08T09:05:25.352Z,10.00
2019-01-08T09:07:54.720Z,10.00
2019-01-08T09:10:24.113Z,10.00
2019-01-08T09:12:53.486Z,10.00
2019-01-08T09:15:22.855Z,10.00
2019-01-08T09:17:52.510Z,10.10
2019-01-08T09:20:21.889Z,10.00
2019-01-08T09:22:51.263Z,10.10
2019-01-08T09:25:20.659Z,10.10
2019-01-08T09:27:50.030Z,10.10
2019-01-08T09:30:19.400Z,10.10
2019-01-08T09:32:48.861Z,10.10
2019-01-08T09:35:18.233Z,10.10
2019-01-08T09:37:47.604Z,10.10
2019-01-08T09:40:17.544Z,10.10
2019-01-08T09:42:46.985Z,10.00
2019-01-08T09:45:16.547Z,10.00
2019-01-08T09:47:45.919Z,10.00
2019-01-08T09:50:15.628Z,9.90
2019-01-08T09:52:45.058Z,9.90
2019-01-08T09:55:14.439Z,9.90
2019-01-08T09:57:43.806Z,9.90
2019-01-08T10:00:13.445Z,9.90
2019-01-08T10:02:43.100Z,9.90
2019-01-08T10:05:12.475Z,9.90
2019-01-08T10:07:41.837Z,9.90
2019-01-08T10:10:11.571Z,9.90
2019-01-08T10:12:40.934Z,9.90
2019-01-08T10:15:10.301Z,9.90
2019-01-08T10:17:39.677Z,9.90
2019-01-08T10:20:09.825Z,9.90
2019-01-08T10:22:39.188Z,9.90
2019-01-08T10:25:10.026Z,10.00
2019-01-08T10:27:39.393Z,10.00
2019-01-08T10:30:28.192Z,10.00
2019-01-08T10:32:57.545Z,10.00
2019-01-08T10:35:26.929Z,10.00
2019-01-08T10:37:56.316Z,10.00
2019-01-08T10:40:25.690Z,10.00
2019-01-08T10:42:55.307Z,10.10
2019-01-08T10:45:25.061Z,10.10
2019-01-08T10:47:54.646Z,10.10
2019-01-08T10:50:24.030Z,10.10
2019-01-08T10:52:53.410Z,10.10
2019-01-08T10:55:22.783Z,10.10
2019-01-08T10:57:52.156Z,10.10
2019-01-08T11:00:21.558Z,10.00
2019-01-08T11:02:50.925Z,10.00
2019-01-08T11:05:20.296Z,10.10
2019-01-08T11:07:50.211Z,10.10
2019-01-08T11:10:19.594Z,10.10
2019-01-08T11:12:48.946Z,10.10
2019-01-08T11:15:18.327Z,10.10
2019-01-08T11:17:47.978Z,10.10
2019-01-08T11:20:17.434Z,10.10
2019-01-08T11:22:46.809Z,10.10
2019-01-08T11:25:16.212Z,10.00
2019-01-08T11:27:45.547Z,10.00
2019-01-08T11:30:14.979Z,10.00
2019-01-08T11:32:44.346Z,10.00
2019-01-08T11:35:13.722Z,10.10
2019-01-08T11:37:43.120Z,10.10
2019-01-08T11:40:12.493Z,10.10
2019-01-08T11:42:41.865Z,10.00
2019-01-08T11:45:11.250Z,10.10
2019-01-08T11:47:40.615Z,10.00
2019-01-08T11:50:10.023Z,10.10
2019-01-08T11:52:39.927Z,10.10
2019-01-08T11:55:09.413Z,10.10
2019-01-08T11:57:38.785Z,10.10
2019-01-08T12:00:12.676Z,10.10
2019-01-08T12:02:47.736Z,10.10
2019-01-08T12:05:13.216Z,10.10
2019-01-08T12:07:43.208Z,10.10
2019-01-08T12:10:12.775Z,10.00
2019-01-08T12:12:42.148Z,10.10
2019-01-08T12:15:11.551Z,10.10
2019-01-08T12:17:41.226Z,10.10
2019-01-08T12:20:12.909Z,10.10
2019-01-08T12:22:42.291Z,10.10
2019-01-08T12:25:11.666Z,10.10
2019-01-08T12:27:41.044Z,10.10
2019-01-08T12:30:12.191Z,10.20
2019-01-08T12:32:41.557Z,10.20
2019-01-08T12:35:10.929Z,10.20
2019-01-08T12:37:42.118Z,10.20
2019-01-08T12:40:11.627Z,10.20
2019-01-08T12:42:40.999Z,10.20
2019-01-08T12:45:10.399Z,10.30
2019-01-08T12:47:39.779Z,10.30
2019-01-08T12:50:09.529Z,10.30
2019-01-08T12:52:39.313Z,10.30
2019-01-08T12:55:09.213Z,10.30
2019-01-08T12:57:38.586Z,10.30
2019-01-08T13:00:11.271Z,10.30
2019-01-08T13:02:40.714Z,10.30
2019-01-08T13:05:10.441Z,10.30
2019-01-08T13:07:40.450Z,10.30
2019-01-08T13:10:09.822Z,10.40
2019-01-08T13:12:39.192Z,10.30
2019-01-08T13:15:08.957Z,10.30
2019-01-08T13:17:38.328Z,10.30
2019-01-08T13:20:08.845Z,10.30
2019-01-08T13:22:38.257Z,10.30
2019-01-08T13:25:08.923Z,10.30
2019-01-08T13:27:38.295Z,10.30
2019-01-08T13:30:09.538Z,10.40
2019-01-08T13:32:38.910Z,10.30
2019-01-08T13:35:08.768Z,10.30
2019-01-08T13:37:38.149Z,10.30
2019-01-08T13:40:08.646Z,10.30
2019-01-08T13:42:38.018Z,10.30
2019-01-08T13:45:09.080Z,10.30
2019-01-08T13:47:38.459Z,10.30
2019-01-08T13:50:09.155Z,10.20
2019-01-08T13:52:38.753Z,10.20
2019-01-08T13:55:08.908Z,10.20
2019-01-08T13:57:38.278Z,10.20
2019-01-08T14:00:09.657Z,10.20
2019-01-08T14:02:39.033Z,10.20
2019-01-08T14:05:09.074Z,10.20
2019-01-08T14:07:38.718Z,10.20
2019-01-08T14:10:09.281Z,10.20
2019-01-08T14:12:38.657Z,10.20
2019-01-08T14:15:09.325Z,10.20
2019-01-08T14:17:38.699Z,10.10
2019-01-08T14:20:09.896Z,10.10
2019-01-08T14:22:39.279Z,10.10
2019-01-08T14:25:09.322Z,10.10
2019-01-08T14:27:38.690Z,10.00
2019-01-08T14:30:10.871Z,10.00
2019-01-08T14:32:40.763Z,10.00
2019-01-08T14:35:10.494Z,10.00
2019-01-08T14:37:39.866Z,9.90
2019-01-08T14:40:09.301Z,9.90
2019-01-08T14:42:38.674Z,9.90
2019-01-08T14:45:09.181Z,9.90
2019-01-08T14:47:38.549Z,9.90
2019-01-08T14:50:08.934Z,9.90
2019-01-08T14:52:38.865Z,9.90
2019-01-08T14:55:08.660Z,9.90
2019-01-08T14:57:38.004Z,9.90
2019-01-08T15:00:10.326Z,9.90
2019-01-08T15:02:39.701Z,9.90
2019-01-08T15:05:09.181Z,9.90
2019-01-08T15:07:38.967Z,9.90
2019-01-08T15:10:09.771Z,9.80
2019-01-08T15:12:39.146Z,9.80
2019-01-08T15:15:09.019Z,9.80
2019-01-08T15:17:38.384Z,9.80
2019-01-08T15:20:08.845Z,9.80
2019-01-08T15:22:38.321Z,9.80
2019-01-08T15:25:08.936Z,9.80
2019-01-08T15:27:38.300Z,9.80
2019-01-08T15:30:10.769Z,9.80
2019-01-08T15:32:40.162Z,9.80
2019-01-08T15:35:09.507Z,9.80
2019-01-08T15:37:38.885Z,9.80
2019-01-08T15:40:08.691Z,9.80
2019-01-08T15:42:38.058Z,9.80
2019-01-08T15:45:07.605Z,9.90
2019-01-08T15:47:37.034Z,9.80
2019-01-08T15:50:08.187Z,9.80
2019-01-08T15:52:38.018Z,9.90
2019-01-08T15:55:07.585Z,9.80
2019-01-08T15:57:36.960Z,9.80
2019-01-08T16:00:10.018Z,9.80
2019-01-08T16:02:39.405Z,9.80
2019-01-08T16:05:09.240Z,9.80
2019-01-08T16:07:38.629Z,9.80
2019-01-08T16:10:09.380Z,9.80
2019-01-08T16:12:38.751Z,9.80
2019-01-08T16:15:09.649Z,9.80
2019-01-08T16:17:39.012Z,9.80
2019-01-08T16:20:08.849Z,9.80
2019-01-08T16:22:38.234Z,9.80
2019-01-08T16:25:08.182Z,9.70
2019-01-08T16:27:37.545Z,9.70
2019-01-08T16:30:08.995Z,9.70
2019-01-08T16:32:38.355Z,9.70
2019-01-08T16:35:08.654Z,9.60
2019-01-08T16:37:38.271Z,9.60
2019-01-08T16:40:10.401Z,9.60
2019-01-08T16:42:39.763Z,9.60
2019-01-08T16:45:09.685Z,9.60
2019-01-08T16:47:39.047Z,9.50
2019-01-08T16:50:08.808Z,9.50
2019-01-08T16:52:38.189Z,9.50
2019-01-08T16:55:08.672Z,9.40
2019-01-08T16:57:38.039Z,9.00
2019-01-08T17:00:12.015Z,9.20
2019-01-08T17:02:41.696Z,9.10
2019-01-08T17:05:11.079Z,9.00
2019-01-08T17:07:40.457Z,8.90
2019-01-08T17:10:10.413Z,8.80
2019-01-08T17:12:39.779Z,8.70
2019-01-08T17:15:09.313Z,8.70
2019-01-08T17:17:38.684Z,8.60
2019-01-08T17:20:08.808Z,8.50
2019-01-08T17:22:38.424Z,8.50
2019-01-08T17:25:08.521Z,8.40
2019-01-08T17:27:37.881Z,8.40
2019-01-08T17:30:10.443Z,8.40
2019-01-08T17:32:39.805Z,8.30
2019-01-08T17:35:09.177Z,8.30
2019-01-08T17:37:38.843Z,8.30
2019-01-08T17:40:09.702Z,8.30
2019-01-08T17:42:39.065Z,8.30
2019-01-08T17:45:11.288Z,8.30
2019-01-08T17:47:40.657Z,8.30
2019-01-08T17:50:10.192Z,8.20
2019-01-08T17:52:39.569Z,8.20
2019-01-08T17:55:08.940Z,8.20
2019-01-08T17:57:38.580Z,8.20
2019-01-08T18:00:11.300Z,8.20
2019-01-08T18:02:42.577Z,8.20
2019-01-08T18:05:12.025Z,8.20
2019-01-08T18:07:41.862Z,8.20
2019-01-08T18:10:11.231Z,8.20
2019-01-08T18:12:40.588Z,8.20
2019-01-08T18:15:09.966Z,8.20
2019-01-08T18:17:39.330Z,8.20
2019-01-08T18:20:08.695Z,8.20
2019-01-08T18:22:38.079Z,8.20
2019-01-08T18:25:08.037Z,8.20
2019-01-08T18:27:37.427Z,8.20
2019-01-08T18:30:09.128Z,8.20
2019-01-08T18:32:41.497Z,8.20
2019-01-08T18:35:10.869Z,8.10
2019-01-08T18:37:40.245Z,8.10
2019-01-08T18:40:09.608Z,8.10
2019-01-08T18:42:38.973Z,8.00
2019-01-08T18:45:09.148Z,8.00
2019-01-08T18:47:38.517Z,8.00
2019-01-08T18:50:08.197Z,7.90
2019-01-08T18:52:38.088Z,7.90
2019-01-08T18:55:08.565Z,7.90
2019-01-08T18:57:37.927Z,7.80
2019-01-08T19:00:09.780Z,7.80
2019-01-08T19:02:39.145Z,7.80
2019-01-08T19:05:08.967Z,7.70
2019-01-08T19:07:39.099Z,7.70
2019-01-08T19:10:17.718Z,7.70
2019-01-08T19:12:48.824Z,7.60
2019-01-08T19:15:18.188Z,7.60
2019-01-08T19:17:47.551Z,7.60
2019-01-08T19:20:16.931Z,7.60
2019-01-08T19:22:46.290Z,7.50
2019-01-08T19:25:15.729Z,7.50
2019-01-08T19:27:45.173Z,7.50
2019-01-08T19:30:14.532Z,7.50
2019-01-08T19:32:43.898Z,7.50
2019-01-08T19:35:13.290Z,7.50
2019-01-08T19:37:42.645Z,7.50
2019-01-08T19:40:12.008Z,7.50
2019-01-08T19:42:41.456Z,7.40
2019-01-08T19:45:10.823Z,7.40
2019-01-08T19:47:40.184Z,7.40
2019-01-08T19:50:10.838Z,7.40
2019-01-08T19:52:40.213Z,7.40
2019-01-08T19:55:09.582Z,7.40
2019-01-08T19:57:39.304Z,7.40
2019-01-08T20:00:11.730Z,7.40
2019-01-08T20:02:41.087Z,7.40
2019-01-08T20:05:10.559Z,7.50
2019-01-08T20:07:39.921Z,7.50
2019-01-08T20:10:09.714Z,7.50
2019-01-08T20:12:39.400Z,7.50
2019-01-08T20:15:09.521Z,7.50
2019-01-08T20:17:38.879Z,7.50
2019-01-08T20:20:10.022Z,7.50
2019-01-08T20:22:39.397Z,7.50
2019-01-08T20:25:09.294Z,7.50
2019-01-08T20:27:38.675Z,7.50
2019-01-08T20:30:09.518Z,7.50
2019-01-08T20:32:38.882Z,7.50
2019-01-08T20:35:10.285Z,7.40
2019-01-08T20:37:39.645Z,7.50
2019-01-08T20:40:10.113Z,7.50
2019-01-08T20:42:39.672Z,7.40
2019-01-08T20:45:09.087Z,7.40
2019-01-08T20:47:38.443Z,7.40
2019-01-08T20:50:08.932Z,7.40
2019-01-08T20:52:38.295Z,7.40
2019-01-08T20:55:07.834Z,7.40
2019-01-08T20:57:37.509Z,7.40
2019-01-08T21:00:10.463Z,7.30
2019-01-08T21:02:39.824Z,7.30
2019-01-08T21:05:09.429Z,7.30
2019-01-08T21:07:38.784Z,7.30
2019-01-08T21:10:09.388Z,7.30
2019-01-08T21:12:40.106Z,7.30
2019-01-08T21:15:09.542Z,7.30
2019-01-08T21:17:38.903Z,7.30
2019-01-08T21:20:09.031Z,7.30
2019-01-08T21:22:38.394Z,7.20
2019-01-08T21:25:08.908Z,7.20
2019-01-08T21:27:38.485Z,7.20
2019-01-08T21:30:09.934Z,7.10
2019-01-08T21:32:39.298Z,7.10
2019-01-08T21:35:09.567Z,7.00
2019-01-08T21:37:38.915Z,7.00
2019-01-08T21:40:08.886Z,7.00
2019-01-08T21:42:38.256Z,7.00
2019-01-08T21:45:07.733Z,7.00
2019-01-08T21:47:37.097Z,7.00
2019-01-08T21:50:08.661Z,7.00
2019-01-08T21:52:38.021Z,7.00
2019-01-08T21:55:08.343Z,7.00
2019-01-08T21:57:38.166Z,7.00
2019-01-08T22:00:10.478Z,7.00
2019-01-08T22:02:39.845Z,7.00
2019-01-08T22:05:09.218Z,7.00
2019-01-08T22:07:38.715Z,7.00
2019-01-08T22:10:08.712Z,7.00
2019-01-08T22:12:38.113Z,7.00
2019-01-08T22:15:08.879Z,7.00
2019-01-08T22:17:38.252Z,7.00
2019-01-08T22:20:11.031Z,7.00
2019-01-08T22:22:40.395Z,7.00
2019-01-08T22:25:09.756Z,7.00
2019-01-08T22:27:39.403Z,7.00
2019-01-08T22:30:09.651Z,6.90
2019-01-08T22:32:39.084Z,6.90
2019-01-08T22:35:09.221Z,6.90
2019-01-08T22:37:38.579Z,6.90
2019-01-08T22:40:09.896Z,6.90
2019-01-08T22:42:39.319Z,6.90
2019-01-08T22:45:09.106Z,6.90
2019-01-08T22:47:38.458Z,6.90
2019-01-08T22:50:09.280Z,6.90
2019-01-08T22:52:38.651Z,6.90
2019-01-08T22:55:09.131Z,6.90
2019-01-08T22:57:38.818Z,6.90
2019-01-08T23:00:16.689Z,6.90
2019-01-08T23:02:46.539Z,6.90
2019-01-08T23:05:16.182Z,6.90
2019-01-08T23:07:45.535Z,6.90
2019-01-08T23:10:15.362Z,6.90
2019-01-08T23:12:45.192Z,6.90
2019-01-08T23:15:14.826Z,6.90
2019-01-08T23:17:44.302Z,6.90
2019-01-08T23:20:13.672Z,6.90
2019-01-08T23:22:43.029Z,6.90
2019-01-08T23:25:12.649Z,6.80
2019-01-08T23:27:42.021Z,6.80
2019-01-08T23:30:11.477Z,6.80
2019-01-08T23:32:40.832Z,6.80
2019-01-08T23:35:19.330Z,6.80
2019-01-08T23:37:41.713Z,6.80
2019-01-08T23:40:11.165Z,6.80
2019-01-08T23:42:40.526Z,6.80
2019-01-08T23:45:10.030Z,6.80
2019-01-08T23:47:39.787Z,6.70
2019-01-08T23:50:09.352Z,6.80
2019-01-08T23:52:58.192Z,6.70
2019-01-08T23:55:32.743Z,6.70
2019-01-08T23:58:03.681Z,6.70
